sensor_id;sensor_type;location;lat;lon;timestamp;pressure;altitude;pressure_sealevel;temperature;humidity
23616;BME280;11985;49.404;7.734;2023-04-27T00:02:38;97383.22;;;2.68;100.00
23616;BME280;11985;49.404;7.734;2023-04-27T00:07:41;97382.84;;;2.62;100.00
23616;BME280;11985;49.404;7.734;2023-04-27T00:12:42;97382.03;;;2.62;100.00
23616;BME280;11985;49.404;7.734;2023-04-27T00:17:44;97381.34;;;2.60;100.00
23616;BME280;11985;49.404;7.734;2023-04-27T00:22:47;97376.63;;;2.55;100.00
23616;BME280;11985;49.404;7.734;2023-04-27T00:27:48;97373.16;;;2.47;100.00
23616;BME280;11985;49.404;7.734;2023-04-27T00:32:50;97372.97;;;2.40;100.00
23616;BME280;11985;49.404;7.734;2023-04-27T00:37:53;97377.72;;;2.27;100.00
23616;BME280;11985;49.404;7.734;2023-04-27T00:42:55;97375.28;;;2.25;100.00
23616;BME280;11985;49.404;7.734;2023-04-27T00:47:57;97374.91;;;2.20;100.00
23616;BME280;11985;49.404;7.734;2023-04-27T00:53:00;97370.69;;;2.19;100.00
23616;BME280;11985;49.404;7.734;2023-04-27T00:58:02;97367.44;;;2.17;100.00
23616;BME280;11985;49.404;7.734;2023-04-27T01:03:04;97367.19;;;2.10;100.00
23616;BME280;11985;49.404;7.734;2023-04-27T01:08:07;97368.47;;;2.06;100.00
23616;BME280;11985;49.404;7.734;2023-04-27T01:13:09;97378.50;;;2.01;100.00
23616;BME280;11985;49.404;7.734;2023-04-27T01:18:10;97374.31;;;2.08;100.00
23616;BME280;11985;49.404;7.734;2023-04-27T01:23:14;97373.22;;;2.11;100.00
23616;BME280;11985;49.404;7.734;2023-04-27T01:28:16;97378.31;;;2.21;100.00
23616;BME280;11985;49.404;7.734;2023-04-27T01:33:17;97371.41;;;2.29;100.00
23616;BME280;11985;49.404;7.734;2023-04-27T01:38:20;97366.78;;;2.41;100.00
23616;BME280;11985;49.404;7.734;2023-04-27T01:43:23;97375.31;;;2.51;100.00
23616;BME280;11985;49.404;7.734;2023-04-27T01:48:24;97379.91;;;2.57;100.00
23616;BME280;11985;49.404;7.734;2023-04-27T01:53:27;97372.13;;;2.65;100.00
23616;BME280;11985;49.404;7.734;2023-04-27T01:58:29;97377.06;;;2.77;100.00
23616;BME280;11985;49.404;7.734;2023-04-27T02:03:31;97379.03;;;2.75;100.00
23616;BME280;11985;49.404;7.734;2023-04-27T02:08:34;97379.19;;;2.73;100.00
23616;BME280;11985;49.404;7.734;2023-04-27T02:13:36;97380.97;;;2.73;100.00
23616;BME280;11985;49.404;7.734;2023-04-27T02:18:37;97384.47;;;2.63;100.00
23616;BME280;11985;49.404;7.734;2023-04-27T02:23:41;97379.56;;;2.60;100.00
23616;BME280;11985;49.404;7.734;2023-04-27T02:28:42;97382.50;;;2.57;100.00
23616;BME280;11985;49.404;7.734;2023-04-27T02:33:44;97389.78;;;2.54;100.00
23616;BME280;11985;49.404;7.734;2023-04-27T02:38:47;97394.16;;;2.53;100.00
23616;BME280;11985;49.404;7.734;2023-04-27T02:43:49;97393.53;;;2.59;100.00
23616;BME280;11985;49.404;7.734;2023-04-27T02:48:50;97394.28;;;2.70;100.00
23616;BME280;11985;49.404;7.734;2023-04-27T02:53:53;97398.56;;;2.79;100.00
23616;BME280;11985;49.404;7.734;2023-04-27T02:58:55;97391.13;;;2.84;100.00
23616;BME280;11985;49.404;7.734;2023-04-27T03:03:57;97383.66;;;2.89;100.00
23616;BME280;11985;49.404;7.734;2023-04-27T03:09:00;97391.16;;;2.92;100.00
23616;BME280;11985;49.404;7.734;2023-04-27T03:14:03;97390.38;;;3.00;100.00
23616;BME280;11985;49.404;7.734;2023-04-27T03:19:05;97389.25;;;3.02;100.00
23616;BME280;11985;49.404;7.734;2023-04-27T03:24:08;97381.81;;;3.07;100.00
23616;BME280;11985;49.404;7.734;2023-04-27T03:29:10;97374.97;;;3.06;100.00
23616;BME280;11985;49.404;7.734;2023-04-27T03:34:11;97373.03;;;3.08;100.00
23616;BME280;11985;49.404;7.734;2023-04-27T03:39:14;97376.28;;;3.10;100.00
23616;BME280;11985;49.404;7.734;2023-04-27T03:44:16;97382.09;;;3.04;100.00
23616;BME280;11985;49.404;7.734;2023-04-27T03:49:17;97385.84;;;3.02;100.00
23616;BME280;11985;49.404;7.734;2023-04-27T03:54:20;97394.53;;;3.18;100.00
23616;BME280;11985;49.404;7.734;2023-04-27T03:59:22;97389.13;;;3.54;100.00
23616;BME280;11985;49.404;7.734;2023-04-27T04:04:24;97390.66;;;3.81;100.00
23616;BME280;11985;49.404;7.734;2023-04-27T04:09:27;97378.81;;;3.95;100.00
23616;BME280;11985;49.404;7.734;2023-04-27T04:14:28;97392.31;;;3.90;100.00
23616;BME280;11985;49.404;7.734;2023-04-27T04:19:30;97402.91;;;3.97;100.00
23616;BME280;11985;49.404;7.734;2023-04-27T04:24:33;97393.50;;;4.12;100.00
23616;BME280;11985;49.404;7.734;2023-04-27T04:29:35;97394.97;;;4.23;100.00
23616;BME280;11985;49.404;7.734;2023-04-27T04:34:38;97391.34;;;4.16;100.00
23616;BME280;11985;49.404;7.734;2023-04-27T04:39:41;97385.34;;;4.07;100.00
23616;BME280;11985;49.404;7.734;2023-04-27T04:44:43;97391.19;;;4.01;100.00
23616;BME280;11985;49.404;7.734;2023-04-27T04:49:44;97388.25;;;3.96;100.00
23616;BME280;11985;49.404;7.734;2023-04-27T04:54:50;97395.44;;;4.02;100.00
23616;BME280;11985;49.404;7.734;2023-04-27T04:59:52;97400.97;;;4.07;100.00
23616;BME280;11985;49.404;7.734;2023-04-27T05:04:53;97405.50;;;4.05;100.00
23616;BME280;11985;49.404;7.734;2023-04-27T05:09:58;97407.84;;;4.24;100.00
23616;BME280;11985;49.404;7.734;2023-04-27T05:14:59;97408.63;;;4.49;100.00
23616;BME280;11985;49.404;7.734;2023-04-27T05:20:01;97418.25;;;4.57;100.00
23616;BME280;11985;49.404;7.734;2023-04-27T05:25:06;97422.31;;;4.60;100.00
23616;BME280;11985;49.404;7.734;2023-04-27T05:30:08;97429.34;;;4.51;100.00
23616;BME280;11985;49.404;7.734;2023-04-27T05:35:10;97437.16;;;4.43;100.00
23616;BME280;11985;49.404;7.734;2023-04-27T05:40:14;97435.84;;;4.55;100.00
23616;BME280;11985;49.404;7.734;2023-04-27T05:45:16;97442.06;;;4.79;100.00
23616;BME280;11985;49.404;7.734;2023-04-27T05:50:17;97447.88;;;5.05;100.00
23616;BME280;11985;49.404;7.734;2023-04-27T05:55:20;97441.75;;;5.45;100.00
23616;BME280;11985;49.404;7.734;2023-04-27T06:00:22;97444.63;;;5.98;100.00
23616;BME280;11985;49.404;7.734;2023-04-27T06:05:24;97453.59;;;6.49;100.00
23616;BME280;11985;49.404;7.734;2023-04-27T06:10:27;97452.75;;;6.95;100.00
23616;BME280;11985;49.404;7.734;2023-04-27T06:15:28;97460.09;;;7.29;95.60
23616;BME280;11985;49.404;7.734;2023-04-27T06:20:30;97446.53;;;7.55;91.64
23616;BME280;11985;49.404;7.734;2023-04-27T06:25:33;97452.03;;;7.60;87.53
23616;BME280;11985;49.404;7.734;2023-04-27T06:30:36;97460.63;;;7.83;85.82
23616;BME280;11985;49.404;7.734;2023-04-27T06:35:38;97452.16;;;8.03;83.47
23616;BME280;11985;49.404;7.734;2023-04-27T06:40:41;97461.41;;;8.35;81.90
23616;BME280;11985;49.404;7.734;2023-04-27T06:45:44;97454.53;;;9.05;77.39
23616;BME280;11985;49.404;7.734;2023-04-27T06:50:45;97463.09;;;9.13;73.55
23616;BME280;11985;49.404;7.734;2023-04-27T06:55:48;97463.44;;;9.66;70.55
23616;BME280;11985;49.404;7.734;2023-04-27T07:00:51;97464.31;;;10.28;68.59
23616;BME280;11985;49.404;7.734;2023-04-27T07:05:52;97457.50;;;10.73;67.85
23616;BME280;11985;49.404;7.734;2023-04-27T07:10:57;97455.47;;;10.75;66.45
23616;BME280;11985;49.404;7.734;2023-04-27T07:15:58;97452.81;;;10.82;66.41
23616;BME280;11985;49.404;7.734;2023-04-27T07:21:00;97462.56;;;10.75;66.06
23616;BME280;11985;49.404;7.734;2023-04-27T07:26:03;97463.19;;;10.90;65.11
23616;BME280;11985;49.404;7.734;2023-04-27T07:31:06;97464.94;;;10.43;65.08
23616;BME280;11985;49.404;7.734;2023-04-27T07:36:08;97458.44;;;10.32;64.75
23616;BME280;11985;49.404;7.734;2023-04-27T07:41:11;97460.34;;;10.72;65.72
23616;BME280;11985;49.404;7.734;2023-04-27T07:46:13;97456.28;;;10.76;65.02
23616;BME280;11985;49.404;7.734;2023-04-27T07:51:15;97449.38;;;10.68;64.41
23616;BME280;11985;49.404;7.734;2023-04-27T07:56:18;97445.72;;;11.29;63.42
23616;BME280;11985;49.404;7.734;2023-04-27T08:01:20;97441.66;;;11.98;62.12
23616;BME280;11985;49.404;7.734;2023-04-27T08:06:22;97446.25;;;12.15;61.46
23616;BME280;11985;49.404;7.734;2023-04-27T08:11:25;97447.88;;;12.55;60.28
23616;BME280;11985;49.404;7.734;2023-04-27T08:16:27;97444.22;;;12.81;58.69
23616;BME280;11985;49.404;7.734;2023-04-27T08:21:28;97442.38;;;12.81;57.96
23616;BME280;11985;49.404;7.734;2023-04-27T08:26:31;97446.97;;;12.67;57.07
23616;BME280;11985;49.404;7.734;2023-04-27T08:31:34;97445.34;;;12.66;56.96
23616;BME280;11985;49.404;7.734;2023-04-27T08:36:36;97446.09;;;12.42;56.35
23616;BME280;11985;49.404;7.734;2023-04-27T08:41:41;97453.50;;;12.27;56.26
23616;BME280;11985;49.404;7.734;2023-04-27T08:46:43;97454.69;;;12.31;56.01
23616;BME280;11985;49.404;7.734;2023-04-27T08:51:45;97449.34;;;12.44;54.61
23616;BME280;11985;49.404;7.734;2023-04-27T08:56:48;97448.50;;;12.50;54.57
23616;BME280;11985;49.404;7.734;2023-04-27T09:01:50;97446.50;;;12.71;54.27
23616;BME280;11985;49.404;7.734;2023-04-27T09:06:52;97442.88;;;12.97;52.76
23616;BME280;11985;49.404;7.734;2023-04-27T09:11:54;97445.63;;;13.08;52.37
23616;BME280;11985;49.404;7.734;2023-04-27T09:16:57;97440.03;;;13.23;51.93
23616;BME280;11985;49.404;7.734;2023-04-27T09:22:03;97440.44;;;12.95;51.61
23616;BME280;11985;49.404;7.734;2023-04-27T09:27:07;97435.78;;;13.22;52.01
23616;BME280;11985;49.404;7.734;2023-04-27T09:32:15;97428.84;;;13.21;51.43
23616;BME280;11985;49.404;7.734;2023-04-27T09:37:17;97435.78;;;13.15;51.78
23616;BME280;11985;49.404;7.734;2023-04-27T09:42:21;97445.28;;;12.98;52.24
23616;BME280;11985;49.404;7.734;2023-04-27T09:47:23;97438.56;;;13.27;52.30
23616;BME280;11985;49.404;7.734;2023-04-27T09:52:27;97433.28;;;13.45;51.13
23616;BME280;11985;49.404;7.734;2023-04-27T09:57:36;97425.88;;;13.72;50.64
23616;BME280;11985;49.404;7.734;2023-04-27T10:02:46;97426.41;;;14.11;50.93
23616;BME280;11985;49.404;7.734;2023-04-27T10:07:50;97428.59;;;14.98;50.89
23616;BME280;11985;49.404;7.734;2023-04-27T10:13:00;97426.19;;;15.20;48.88
23616;BME280;11985;49.404;7.734;2023-04-27T10:18:03;97430.47;;;15.32;47.81
23616;BME280;11985;49.404;7.734;2023-04-27T10:23:05;97428.94;;;15.37;46.72
23616;BME280;11985;49.404;7.734;2023-04-27T10:28:14;97427.56;;;14.99;46.19
23616;BME280;11985;49.404;7.734;2023-04-27T10:33:18;97422.97;;;14.83;46.06
23616;BME280;11985;49.404;7.734;2023-04-27T10:38:25;97416.13;;;14.87;46.29
23616;BME280;11985;49.404;7.734;2023-04-27T10:43:30;97416.13;;;14.87;46.46
23616;BME280;11985;49.404;7.734;2023-04-27T10:48:32;97409.13;;;14.92;46.00
23616;BME280;11985;49.404;7.734;2023-04-27T10:53:34;97404.94;;;14.73;46.01
23616;BME280;11985;49.404;7.734;2023-04-27T10:58:37;97404.97;;;14.85;45.81
23616;BME280;11985;49.404;7.734;2023-04-27T11:03:39;97398.97;;;15.01;46.16
23616;BME280;11985;49.404;7.734;2023-04-27T11:08:43;97395.63;;;15.17;45.79
23616;BME280;11985;49.404;7.734;2023-04-27T11:13:47;97388.81;;;15.45;45.42
23616;BME280;11985;49.404;7.734;2023-04-27T11:18:49;97379.41;;;15.77;45.11
23616;BME280;11985;49.404;7.734;2023-04-27T11:23:51;97373.09;;;16.24;44.04
23616;BME280;11985;49.404;7.734;2023-04-27T11:28:59;97369.03;;;16.50;43.33
23616;BME280;11985;49.404;7.734;2023-04-27T11:34:01;97363.53;;;16.56;42.62
23616;BME280;11985;49.404;7.734;2023-04-27T11:39:03;97356.53;;;16.67;42.80
23616;BME280;11985;49.404;7.734;2023-04-27T11:44:09;97356.72;;;16.60;42.15
23616;BME280;11985;49.404;7.734;2023-04-27T11:49:11;97352.03;;;16.51;42.64
23616;BME280;11985;49.404;7.734;2023-04-27T11:54:13;97356.41;;;15.83;42.95
23616;BME280;11985;49.404;7.734;2023-04-27T11:59:20;97341.22;;;16.41;43.75
23616;BME280;11985;49.404;7.734;2023-04-27T12:04:22;97348.56;;;17.01;42.90
23616;BME280;11985;49.404;7.734;2023-04-27T12:09:24;97346.56;;;16.74;42.51
23616;BME280;11985;49.404;7.734;2023-04-27T12:14:27;97344.13;;;16.56;41.87
23616;BME280;11985;49.404;7.734;2023-04-27T12:19:29;97344.59;;;17.03;42.63
23616;BME280;11985;49.404;7.734;2023-04-27T12:24:31;97344.63;;;17.25;41.79
23616;BME280;11985;49.404;7.734;2023-04-27T12:29:34;97343.63;;;17.31;41.82
23616;BME280;11985;49.404;7.734;2023-04-27T12:34:36;97327.31;;;17.45;41.65
23616;BME280;11985;49.404;7.734;2023-04-27T12:39:38;97331.91;;;16.88;41.63
23616;BME280;11985;49.404;7.734;2023-04-27T12:44:41;97319.50;;;16.77;42.15
23616;BME280;11985;49.404;7.734;2023-04-27T12:49:43;97315.28;;;16.81;42.48
23616;BME280;11985;49.404;7.734;2023-04-27T12:54:45;97307.38;;;16.86;41.53
23616;BME280;11985;49.404;7.734;2023-04-27T12:59:48;97306.56;;;17.47;41.52
23616;BME280;11985;49.404;7.734;2023-04-27T13:04:50;97316.41;;;17.68;40.55
23616;BME280;11985;49.404;7.734;2023-04-27T13:09:52;97317.72;;;17.44;40.62
23616;BME280;11985;49.404;7.734;2023-04-27T13:14:54;97310.69;;;17.37;41.36
23616;BME280;11985;49.404;7.734;2023-04-27T13:19:56;97312.53;;;16.76;41.04
23616;BME280;11985;49.404;7.734;2023-04-27T13:24:58;97319.69;;;16.93;41.89
23616;BME280;11985;49.404;7.734;2023-04-27T13:30:01;97316.06;;;16.99;41.88
23616;BME280;11985;49.404;7.734;2023-04-27T13:35:04;97316.47;;;16.91;41.94
23616;BME280;11985;49.404;7.734;2023-04-27T13:40:08;97307.72;;;16.56;42.04
23616;BME280;11985;49.404;7.734;2023-04-27T13:45:12;97316.13;;;17.04;42.09
23616;BME280;11985;49.404;7.734;2023-04-27T13:50:13;97312.88;;;17.84;42.23
23616;BME280;11985;49.404;7.734;2023-04-27T13:55:15;97320.31;;;17.82;41.45
23616;BME280;11985;49.404;7.734;2023-04-27T14:00:19;97315.34;;;17.25;41.63
23616;BME280;11985;49.404;7.734;2023-04-27T14:05:20;97321.03;;;17.12;41.89
23616;BME280;11985;49.404;7.734;2023-04-27T14:10:22;97320.97;;;17.07;42.02
23616;BME280;11985;49.404;7.734;2023-04-27T14:15:25;97318.53;;;16.83;42.60
23616;BME280;11985;49.404;7.734;2023-04-27T14:20:28;97321.72;;;16.69;42.63
23616;BME280;11985;49.404;7.734;2023-04-27T14:25:29;97316.75;;;16.72;42.92
23616;BME280;11985;49.404;7.734;2023-04-27T14:30:34;97322.34;;;16.93;43.61
23616;BME280;11985;49.404;7.734;2023-04-27T14:35:36;97319.84;;;17.03;43.46
23616;BME280;11985;49.404;7.734;2023-04-27T14:40:38;97313.75;;;17.24;44.09
23616;BME280;11985;49.404;7.734;2023-04-27T14:45:41;97308.03;;;17.37;43.42
23616;BME280;11985;49.404;7.734;2023-04-27T14:50:43;97298.25;;;17.21;42.73
23616;BME280;11985;49.404;7.734;2023-04-27T14:55:45;97295.38;;;17.23;42.73
23616;BME280;11985;49.404;7.734;2023-04-27T15:00:49;97297.50;;;17.48;42.55
23616;BME280;11985;49.404;7.734;2023-04-27T15:05:50;97295.59;;;17.21;41.91
23616;BME280;11985;49.404;7.734;2023-04-27T15:10:52;97290.22;;;17.38;42.47
23616;BME280;11985;49.404;7.734;2023-04-27T15:15:58;97290.91;;;17.06;42.67
23616;BME280;11985;49.404;7.734;2023-04-27T15:21:01;97280.19;;;17.23;43.15
23616;BME280;11985;49.404;7.734;2023-04-27T15:26:03;97287.84;;;17.41;42.45
23616;BME280;11985;49.404;7.734;2023-04-27T15:31:06;97270.66;;;17.27;42.35
23616;BME280;11985;49.404;7.734;2023-04-27T15:36:08;97263.63;;;17.16;42.63
23616;BME280;11985;49.404;7.734;2023-04-27T15:41:10;97254.44;;;17.51;42.89
23616;BME280;11985;49.404;7.734;2023-04-27T15:46:13;97250.63;;;17.96;41.83
23616;BME280;11985;49.404;7.734;2023-04-27T15:51:15;97252.13;;;17.86;41.44
23616;BME280;11985;49.404;7.734;2023-04-27T15:56:16;97249.22;;;17.61;41.31
23616;BME280;11985;49.404;7.734;2023-04-27T16:01:19;97240.66;;;17.59;41.28
23616;BME280;11985;49.404;7.734;2023-04-27T16:06:21;97236.78;;;17.93;41.53
23616;BME280;11985;49.404;7.734;2023-04-27T16:11:22;97232.06;;;18.80;41.00
23616;BME280;11985;49.404;7.734;2023-04-27T16:16:25;97232.25;;;19.26;40.02
23616;BME280;11985;49.404;7.734;2023-04-27T16:21:27;97229.03;;;18.29;40.10
23616;BME280;11985;49.404;7.734;2023-04-27T16:26:29;97214.78;;;18.13;40.95
23616;BME280;11985;49.404;7.734;2023-04-27T16:31:32;97224.44;;;18.19;41.42
23616;BME280;11985;49.404;7.734;2023-04-27T16:36:34;97223.16;;;17.68;41.40
23616;BME280;11985;49.404;7.734;2023-04-27T16:41:35;97228.44;;;17.36;42.46
23616;BME280;11985;49.404;7.734;2023-04-27T16:46:38;97232.41;;;17.33;42.36
23616;BME280;11985;49.404;7.734;2023-04-27T16:51:40;97231.69;;;17.16;42.69
23616;BME280;11985;49.404;7.734;2023-04-27T16:56:42;97220.97;;;16.89;43.56
23616;BME280;11985;49.404;7.734;2023-04-27T17:01:46;97217.63;;;16.43;44.05
23616;BME280;11985;49.404;7.734;2023-04-27T17:06:47;97208.00;;;16.20;44.69
23616;BME280;11985;49.404;7.734;2023-04-27T17:11:49;97211.97;;;16.73;45.00
23616;BME280;11985;49.404;7.734;2023-04-27T17:16:52;97215.91;;;17.36;45.18
23616;BME280;11985;49.404;7.734;2023-04-27T17:21:54;97218.25;;;18.51;44.06
23616;BME280;11985;49.404;7.734;2023-04-27T17:26:56;97213.94;;;18.82;42.38
23616;BME280;11985;49.404;7.734;2023-04-27T17:31:59;97218.69;;;18.01;42.13
23616;BME280;11985;49.404;7.734;2023-04-27T17:37:00;97220.31;;;17.26;42.86
23616;BME280;11985;49.404;7.734;2023-04-27T17:42:02;97218.44;;;16.77;44.51
23616;BME280;11985;49.404;7.734;2023-04-27T17:47:07;97214.88;;;16.16;46.68
23616;BME280;11985;49.404;7.734;2023-04-27T17:52:09;97213.72;;;15.78;47.24
23616;BME280;11985;49.404;7.734;2023-04-27T17:57:11;97217.25;;;15.67;48.23
23616;BME280;11985;49.404;7.734;2023-04-27T18:02:14;97205.13;;;15.59;49.68
23616;BME280;11985;49.404;7.734;2023-04-27T18:07:15;97210.63;;;15.41;51.41
23616;BME280;11985;49.404;7.734;2023-04-27T18:12:17;97197.41;;;15.29;52.34
23616;BME280;11985;49.404;7.734;2023-04-27T18:17:20;97193.31;;;15.10;53.11
23616;BME280;11985;49.404;7.734;2023-04-27T18:22:22;97195.84;;;14.88;52.21
23616;BME280;11985;49.404;7.734;2023-04-27T18:27:24;97201.06;;;14.71;52.70
23616;BME280;11985;49.404;7.734;2023-04-27T18:32:27;97204.88;;;14.52;53.98
23616;BME280;11985;49.404;7.734;2023-04-27T18:37:29;97205.91;;;14.39;54.03
23616;BME280;11985;49.404;7.734;2023-04-27T18:42:31;97204.75;;;14.23;54.30
23616;BME280;11985;49.404;7.734;2023-04-27T18:47:34;97195.88;;;13.94;54.70
23616;BME280;11985;49.404;7.734;2023-04-27T18:52:35;97198.00;;;13.74;55.27
23616;BME280;11985;49.404;7.734;2023-04-27T18:57:37;97208.31;;;13.52;56.61
23616;BME280;11985;49.404;7.734;2023-04-27T19:02:40;97201.31;;;13.28;57.25
23616;BME280;11985;49.404;7.734;2023-04-27T19:07:42;97198.25;;;13.12;57.83
23616;BME280;11985;49.404;7.734;2023-04-27T19:12:43;97196.78;;;12.98;57.87
23616;BME280;11985;49.404;7.734;2023-04-27T19:17:46;97199.13;;;12.88;58.58
23616;BME280;11985;49.404;7.734;2023-04-27T19:22:49;97203.84;;;12.86;59.07
23616;BME280;11985;49.404;7.734;2023-04-27T19:27:51;97207.22;;;12.93;59.71
23616;BME280;11985;49.404;7.734;2023-04-27T19:32:54;97202.06;;;12.98;60.11
23616;BME280;11985;49.404;7.734;2023-04-27T19:37:55;97196.28;;;12.89;60.67
23616;BME280;11985;49.404;7.734;2023-04-27T19:42:57;97186.59;;;12.83;60.77
23616;BME280;11985;49.404;7.734;2023-04-27T19:48:00;97189.75;;;12.74;61.40
23616;BME280;11985;49.404;7.734;2023-04-27T19:53:02;97197.16;;;12.65;61.53
23616;BME280;11985;49.404;7.734;2023-04-27T19:58:03;97204.59;;;12.56;62.53
23616;BME280;11985;49.404;7.734;2023-04-27T20:03:07;97202.66;;;12.45;63.16
23616;BME280;11985;49.404;7.734;2023-04-27T20:08:08;97195.78;;;12.44;63.42
23616;BME280;11985;49.404;7.734;2023-04-27T20:13:10;97203.19;;;12.54;64.28
23616;BME280;11985;49.404;7.734;2023-04-27T20:18:13;97197.16;;;12.65;64.72
23616;BME280;11985;49.404;7.734;2023-04-27T20:23:15;97186.25;;;12.61;65.12
23616;BME280;11985;49.404;7.734;2023-04-27T20:28:16;97189.16;;;12.53;65.40
23616;BME280;11985;49.404;7.734;2023-04-27T20:33:19;97179.31;;;12.42;66.37
23616;BME280;11985;49.404;7.734;2023-04-27T20:38:21;97176.22;;;12.27;67.05
23616;BME280;11985;49.404;7.734;2023-04-27T20:43:23;97173.72;;;12.13;67.29
23616;BME280;11985;49.404;7.734;2023-04-27T20:48:26;97180.44;;;12.09;66.76
23616;BME280;11985;49.404;7.734;2023-04-27T20:53:29;97178.25;;;12.06;67.73
23616;BME280;11985;49.404;7.734;2023-04-27T20:58:30;97172.38;;;12.04;68.19
23616;BME280;11985;49.404;7.734;2023-04-27T21:03:33;97182.34;;;12.02;68.75
23616;BME280;11985;49.404;7.734;2023-04-27T21:08:36;97166.94;;;11.99;69.53
23616;BME280;11985;49.404;7.734;2023-04-27T21:13:37;97164.16;;;11.94;70.00
23616;BME280;11985;49.404;7.734;2023-04-27T21:18:40;97158.50;;;11.91;70.30
23616;BME280;11985;49.404;7.734;2023-04-27T21:23:42;97161.78;;;11.86;70.43
23616;BME280;11985;49.404;7.734;2023-04-27T21:28:43;97154.09;;;11.84;71.57
23616;BME280;11985;49.404;7.734;2023-04-27T21:33:47;97146.41;;;11.83;72.25
23616;BME280;11985;49.404;7.734;2023-04-27T21:38:49;97136.22;;;11.80;72.49
23616;BME280;11985;49.404;7.734;2023-04-27T21:43:51;97139.50;;;11.75;73.23
23616;BME280;11985;49.404;7.734;2023-04-27T21:48:54;97126.97;;;11.71;71.39
23616;BME280;11985;49.404;7.734;2023-04-27T21:53:55;97130.22;;;11.73;71.06
23616;BME280;11985;49.404;7.734;2023-04-27T21:58:57;97133.25;;;11.70;71.16
23616;BME280;11985;49.404;7.734;2023-04-27T22:04:00;97140.84;;;11.59;71.42
23616;BME280;11985;49.404;7.734;2023-04-27T22:09:03;97136.34;;;11.67;73.18
23616;BME280;11985;49.404;7.734;2023-04-27T22:14:04;97123.34;;;11.65;72.94
23616;BME280;11985;49.404;7.734;2023-04-27T22:19:07;97119.38;;;11.56;72.30
23616;BME280;11985;49.404;7.734;2023-04-27T22:24:11;97109.19;;;11.59;72.07
23616;BME280;11985;49.404;7.734;2023-04-27T22:29:13;97102.53;;;11.57;72.65
23616;BME280;11985;49.404;7.734;2023-04-27T22:34:16;97099.19;;;11.43;74.38
23616;BME280;11985;49.404;7.734;2023-04-27T22:39:18;97093.16;;;11.36;76.98
23616;BME280;11985;49.404;7.734;2023-04-27T22:44:19;97090.78;;;11.28;78.73
23616;BME280;11985;49.404;7.734;2023-04-27T22:49:22;97089.16;;;11.27;80.11
23616;BME280;11985;49.404;7.734;2023-04-27T22:54:24;97088.00;;;11.23;80.51
23616;BME280;11985;49.404;7.734;2023-04-27T22:59:26;97088.00;;;11.23;83.22
23616;BME280;11985;49.404;7.734;2023-04-27T23:04:29;97087.88;;;11.11;84.16
23616;BME280;11985;49.404;7.734;2023-04-27T23:09:30;97077.44;;;10.91;85.89
23616;BME280;11985;49.404;7.734;2023-04-27T23:14:32;97076.88;;;10.89;89.68
23616;BME280;11985;49.404;7.734;2023-04-27T23:19:35;97086.44;;;10.77;91.73
23616;BME280;11985;49.404;7.734;2023-04-27T23:24:37;97080.34;;;10.83;91.36
23616;BME280;11985;49.404;7.734;2023-04-27T23:29:38;97068.34;;;10.87;91.53
23616;BME280;11985;49.404;7.734;2023-04-27T23:34:41;97061.69;;;10.84;93.91
23616;BME280;11985;49.404;7.734;2023-04-27T23:39:43;97070.47;;;10.72;94.83
23616;BME280;11985;49.404;7.734;2023-04-27T23:44:44;97072.13;;;10.60;96.53
23616;BME280;11985;49.404;7.734;2023-04-27T23:49:47;97072.94;;;10.67;100.00
23616;BME280;11985;49.404;7.734;2023-04-27T23:54:49;97062.41;;;10.67;100.00
23616;BME280;11985;49.404;7.734;2023-04-27T23:59:50;97051.06;;;10.66;100.00
